sensor_id;sensor_type;location;lat;lon;timestamp;temperature;humidity
6244;DHT22;3155;49.940;8.450;2022-11-20T00:01:25;0.90;20.30
6244;DHT22;3155;49.940;8.450;2022-11-20T00:03:54;0.90;1.00
6244;DHT22;3155;49.940;8.450;2022-11-20T00:06:22;0.90;1.00
6244;DHT22;3155;49.940;8.450;2022-11-20T00:08:50;0.90;1.00
6244;DHT22;3155;49.940;8.450;2022-11-20T00:11:22;0.90;1.00
6244;DHT22;3155;49.940;8.450;2022-11-20T00:13:52;0.90;1.00
6244;DHT22;3155;49.940;8.450;2022-11-20T00:16:22;0.90;1.00
6244;DHT22;3155;49.940;8.450;2022-11-20T00:18:49;0.90;1.00
6244;DHT22;3155;49.940;8.450;2022-11-20T00:21:21;0.80;1.00
6244;DHT22;3155;49.940;8.450;2022-11-20T00:23:48;0.70;1.00
6244;DHT22;3155;49.940;8.450;2022-11-20T00:26:17;0.60;1.00
6244;DHT22;3155;49.940;8.450;2022-11-20T00:28:49;0.60;1.00
6244;DHT22;3155;49.940;8.450;2022-11-20T00:31:17;0.50;1.00
6244;DHT22;3155;49.940;8.450;2022-11-20T00:33:45;0.50;1.00
6244;DHT22;3155;49.940;8.450;2022-11-20T00:36:20;0.50;30.70
6244;DHT22;3155;49.940;8.450;2022-11-20T00:38:51;0.60;92.90
6244;DHT22;3155;49.940;8.450;2022-11-20T00:41:19;0.70;99.90
6244;DHT22;3155;49.940;8.450;2022-11-20T00:43:46;0.70;99.90
6244;DHT22;3155;49.940;8.450;2022-11-20T00:46:17;0.70;99.90
6244;DHT22;3155;49.940;8.450;2022-11-20T00:48:44;0.70;99.90
6244;DHT22;3155;49.940;8.450;2022-11-20T00:51:16;0.70;99.90
6244;DHT22;3155;49.940;8.450;2022-11-20T00:53:44;0.70;99.90
6244;DHT22;3155;49.940;8.450;2022-11-20T00:56:12;0.70;99.90
6244;DHT22;3155;49.940;8.450;2022-11-20T00:58:42;0.70;99.90
6244;DHT22;3155;49.940;8.450;2022-11-20T01:03:45;0.70;99.90
6244;DHT22;3155;49.940;8.450;2022-11-20T01:06:17;0.70;99.90
6244;DHT22;3155;49.940;8.450;2022-11-20T01:08:45;0.80;99.90
6244;DHT22;3155;49.940;8.450;2022-11-20T01:11:18;0.80;99.90
6244;DHT22;3155;49.940;8.450;2022-11-20T01:13:47;0.80;99.90
6244;DHT22;3155;49.940;8.450;2022-11-20T01:18:57;0.80;99.90
6244;DHT22;3155;49.940;8.450;2022-11-20T01:21:27;0.80;99.90
6244;DHT22;3155;49.940;8.450;2022-11-20T01:23:54;0.70;99.90
6244;DHT22;3155;49.940;8.450;2022-11-20T01:26:23;0.70;99.90
6244;DHT22;3155;49.940;8.450;2022-11-20T01:28:51;0.70;99.90
6244;DHT22;3155;49.940;8.450;2022-11-20T01:31:27;0.70;1.00
6244;DHT22;3155;49.940;8.450;2022-11-20T01:33:56;0.70;1.00
6244;DHT22;3155;49.940;8.450;2022-11-20T01:36:25;0.80;1.00
6244;DHT22;3155;49.940;8.450;2022-11-20T01:38:54;0.70;1.00
6244;DHT22;3155;49.940;8.450;2022-11-20T01:41:22;0.70;1.00
6244;DHT22;3155;49.940;8.450;2022-11-20T01:44:11;0.80;1.00
6244;DHT22;3155;49.940;8.450;2022-11-20T01:46:42;0.80;1.00
6244;DHT22;3155;49.940;8.450;2022-11-20T01:49:20;0.80;1.00
6244;DHT22;3155;49.940;8.450;2022-11-20T01:51:55;0.80;99.90
6244;DHT22;3155;49.940;8.450;2022-11-20T01:54:38;0.80;1.00
6244;DHT22;3155;49.940;8.450;2022-11-20T01:57:08;0.80;1.00
6244;DHT22;3155;49.940;8.450;2022-11-20T01:59:41;0.80;1.00
6244;DHT22;3155;49.940;8.450;2022-11-20T02:02:11;0.80;1.00
6244;DHT22;3155;49.940;8.450;2022-11-20T02:04:38;0.90;1.00
6244;DHT22;3155;49.940;8.450;2022-11-20T02:07:05;0.80;1.00
6244;DHT22;3155;49.940;8.450;2022-11-20T02:09:32;0.80;1.00
6244;DHT22;3155;49.940;8.450;2022-11-20T02:11:59;0.80;1.00
6244;DHT22;3155;49.940;8.450;2022-11-20T02:14:26;0.80;1.00
6244;DHT22;3155;49.940;8.450;2022-11-20T02:16:54;0.80;1.00
6244;DHT22;3155;49.940;8.450;2022-11-20T02:19:27;0.80;1.00
6244;DHT22;3155;49.940;8.450;2022-11-20T02:22:28;0.90;1.00
6244;DHT22;3155;49.940;8.450;2022-11-20T02:25:00;0.80;1.00
6244;DHT22;3155;49.940;8.450;2022-11-20T02:27:28;0.80;1.00
6244;DHT22;3155;49.940;8.450;2022-11-20T02:30:00;0.80;1.00
6244;DHT22;3155;49.940;8.450;2022-11-20T02:32:30;0.80;1.00
6244;DHT22;3155;49.940;8.450;2022-11-20T02:34:58;0.90;1.00
6244;DHT22;3155;49.940;8.450;2022-11-20T02:37:32;0.90;1.00
6244;DHT22;3155;49.940;8.450;2022-11-20T02:39:59;0.90;1.00
6244;DHT22;3155;49.940;8.450;2022-11-20T02:42:26;0.90;1.00
6244;DHT22;3155;49.940;8.450;2022-11-20T02:44:52;0.90;1.00
6244;DHT22;3155;49.940;8.450;2022-11-20T02:47:19;0.90;1.00
6244;DHT22;3155;49.940;8.450;2022-11-20T02:49:46;0.90;1.00
6244;DHT22;3155;49.940;8.450;2022-11-20T02:52:13;0.90;1.00
6244;DHT22;3155;49.940;8.450;2022-11-20T02:54:40;0.90;1.00
6244;DHT22;3155;49.940;8.450;2022-11-20T02:57:06;0.80;1.00
6244;DHT22;3155;49.940;8.450;2022-11-20T02:59:33;0.80;1.00
6244;DHT22;3155;49.940;8.450;2022-11-20T03:02:00;0.90;1.00
6244;DHT22;3155;49.940;8.450;2022-11-20T03:04:27;0.90;1.00
6244;DHT22;3155;49.940;8.450;2022-11-20T03:06:53;0.90;1.00
6244;DHT22;3155;49.940;8.450;2022-11-20T03:09:21;0.90;1.00
6244;DHT22;3155;49.940;8.450;2022-11-20T03:11:48;0.90;1.00
6244;DHT22;3155;49.940;8.450;2022-11-20T03:14:15;0.90;1.00
6244;DHT22;3155;49.940;8.450;2022-11-20T03:16:42;1.00;1.00
6244;DHT22;3155;49.940;8.450;2022-11-20T03:19:09;1.00;1.00
6244;DHT22;3155;49.940;8.450;2022-11-20T03:21:36;1.00;1.00
6244;DHT22;3155;49.940;8.450;2022-11-20T03:24:03;0.90;1.00
6244;DHT22;3155;49.940;8.450;2022-11-20T03:26:30;1.00;1.00
6244;DHT22;3155;49.940;8.450;2022-11-20T03:29:02;1.00;1.00
6244;DHT22;3155;49.940;8.450;2022-11-20T03:31:32;0.90;1.00
6244;DHT22;3155;49.940;8.450;2022-11-20T03:34:00;1.00;1.00
6244;DHT22;3155;49.940;8.450;2022-11-20T03:36:28;1.00;1.00
6244;DHT22;3155;49.940;8.450;2022-11-20T03:38:56;1.10;1.00
6244;DHT22;3155;49.940;8.450;2022-11-20T03:41:26;1.00;1.00
6244;DHT22;3155;49.940;8.450;2022-11-20T03:46:20;1.00;1.00
6244;DHT22;3155;49.940;8.450;2022-11-20T03:48:47;1.00;1.00
6244;DHT22;3155;49.940;8.450;2022-11-20T03:53:48;0.90;1.00
6244;DHT22;3155;49.940;8.450;2022-11-20T03:56:17;0.90;1.00
6244;DHT22;3155;49.940;8.450;2022-11-20T03:58:45;1.00;1.00
6244;DHT22;3155;49.940;8.450;2022-11-20T04:01:16;1.00;1.00
6244;DHT22;3155;49.940;8.450;2022-11-20T04:03:43;1.00;1.00
6244;DHT22;3155;49.940;8.450;2022-11-20T04:08:41;1.10;1.00
6244;DHT22;3155;49.940;8.450;2022-11-20T04:11:15;1.10;1.00
6244;DHT22;3155;49.940;8.450;2022-11-20T04:13:45;1.00;1.00
6244;DHT22;3155;49.940;8.450;2022-11-20T04:16:12;1.10;1.00
6244;DHT22;3155;49.940;8.450;2022-11-20T04:18:39;1.00;1.00
6244;DHT22;3155;49.940;8.450;2022-11-20T04:21:07;1.00;1.00
6244;DHT22;3155;49.940;8.450;2022-11-20T04:23:33;1.00;1.00
6244;DHT22;3155;49.940;8.450;2022-11-20T04:26:06;0.90;1.00
6244;DHT22;3155;49.940;8.450;2022-11-20T04:28:33;1.00;1.00
6244;DHT22;3155;49.940;8.450;2022-11-20T04:31:08;0.90;1.00
6244;DHT22;3155;49.940;8.450;2022-11-20T04:33:36;0.90;1.00
6244;DHT22;3155;49.940;8.450;2022-11-20T04:38:34;0.90;1.00
6244;DHT22;3155;49.940;8.450;2022-11-20T04:41:04;1.00;1.00
6244;DHT22;3155;49.940;8.450;2022-11-20T04:43:32;1.00;1.00
6244;DHT22;3155;49.940;8.450;2022-11-20T04:46:00;1.00;1.00
6244;DHT22;3155;49.940;8.450;2022-11-20T04:48:28;1.10;1.00
6244;DHT22;3155;49.940;8.450;2022-11-20T04:50:55;1.00;1.00
6244;DHT22;3155;49.940;8.450;2022-11-20T04:53:23;1.00;1.00
6244;DHT22;3155;49.940;8.450;2022-11-20T04:55:50;1.10;1.00
6244;DHT22;3155;49.940;8.450;2022-11-20T04:58:17;1.00;1.00
6244;DHT22;3155;49.940;8.450;2022-11-20T05:00:44;1.00;1.00
6244;DHT22;3155;49.940;8.450;2022-11-20T05:03:10;1.10;1.00
6244;DHT22;3155;49.940;8.450;2022-11-20T05:05:37;1.10;1.00
6244;DHT22;3155;49.940;8.450;2022-11-20T05:08:04;1.10;1.00
6244;DHT22;3155;49.940;8.450;2022-11-20T05:10:31;1.10;1.00
6244;DHT22;3155;49.940;8.450;2022-11-20T05:12:57;1.10;1.00
6244;DHT22;3155;49.940;8.450;2022-11-20T05:15:24;1.10;1.00
6244;DHT22;3155;49.940;8.450;2022-11-20T05:17:52;1.10;1.00
6244;DHT22;3155;49.940;8.450;2022-11-20T05:20:19;1.20;1.00
6244;DHT22;3155;49.940;8.450;2022-11-20T05:22:46;1.20;1.00
6244;DHT22;3155;49.940;8.450;2022-11-20T05:25:13;1.10;1.00
6244;DHT22;3155;49.940;8.450;2022-11-20T05:27:40;1.10;1.00
6244;DHT22;3155;49.940;8.450;2022-11-20T05:30:07;1.10;1.00
6244;DHT22;3155;49.940;8.450;2022-11-20T05:32:34;1.20;1.00
6244;DHT22;3155;49.940;8.450;2022-11-20T05:35:01;1.20;1.00
6244;DHT22;3155;49.940;8.450;2022-11-20T05:37:28;1.20;1.00
6244;DHT22;3155;49.940;8.450;2022-11-20T05:39:54;1.20;1.00
6244;DHT22;3155;49.940;8.450;2022-11-20T05:42:21;1.20;1.00
6244;DHT22;3155;49.940;8.450;2022-11-20T05:45:01;1.20;1.00
6244;DHT22;3155;49.940;8.450;2022-11-20T05:47:32;1.20;1.60
6244;DHT22;3155;49.940;8.450;2022-11-20T05:49:59;1.20;1.00
6244;DHT22;3155;49.940;8.450;2022-11-20T05:52:28;1.30;1.00
6244;DHT22;3155;49.940;8.450;2022-11-20T05:54:56;1.20;1.00
6244;DHT22;3155;49.940;8.450;2022-11-20T05:57:23;1.20;1.00
6244;DHT22;3155;49.940;8.450;2022-11-20T05:59:49;1.30;1.00
6244;DHT22;3155;49.940;8.450;2022-11-20T06:02:16;1.30;1.00
6244;DHT22;3155;49.940;8.450;2022-11-20T06:04:43;1.30;1.00
6244;DHT22;3155;49.940;8.450;2022-11-20T06:07:10;1.30;1.00
6244;DHT22;3155;49.940;8.450;2022-11-20T06:09:37;1.40;1.00
6244;DHT22;3155;49.940;8.450;2022-11-20T06:12:04;1.40;1.00
6244;DHT22;3155;49.940;8.450;2022-11-20T06:14:31;1.40;1.00
6244;DHT22;3155;49.940;8.450;2022-11-20T06:16:57;1.50;1.00
6244;DHT22;3155;49.940;8.450;2022-11-20T06:19:24;1.50;1.00
6244;DHT22;3155;49.940;8.450;2022-11-20T06:21:51;1.50;1.00
6244;DHT22;3155;49.940;8.450;2022-11-20T06:24:17;1.40;1.00
6244;DHT22;3155;49.940;8.450;2022-11-20T06:26:45;1.40;1.00
6244;DHT22;3155;49.940;8.450;2022-11-20T06:29:11;1.50;1.00
6244;DHT22;3155;49.940;8.450;2022-11-20T06:31:38;1.40;1.00
6244;DHT22;3155;49.940;8.450;2022-11-20T06:34:05;1.40;1.00
6244;DHT22;3155;49.940;8.450;2022-11-20T06:36:33;1.40;1.00
6244;DHT22;3155;49.940;8.450;2022-11-20T06:39:01;1.40;1.00
6244;DHT22;3155;49.940;8.450;2022-11-20T06:41:27;1.40;1.00
6244;DHT22;3155;49.940;8.450;2022-11-20T06:43:55;1.40;1.00
6244;DHT22;3155;49.940;8.450;2022-11-20T06:46:22;1.40;1.00
6244;DHT22;3155;49.940;8.450;2022-11-20T06:48:49;1.40;1.00
6244;DHT22;3155;49.940;8.450;2022-11-20T06:51:16;1.40;1.00
6244;DHT22;3155;49.940;8.450;2022-11-20T06:53:43;1.40;1.00
6244;DHT22;3155;49.940;8.450;2022-11-20T06:56:09;1.40;1.00
6244;DHT22;3155;49.940;8.450;2022-11-20T06:58:36;1.50;1.00
6244;DHT22;3155;49.940;8.450;2022-11-20T07:01:10;1.50;1.00
6244;DHT22;3155;49.940;8.450;2022-11-20T07:03:37;1.50;1.00
6244;DHT22;3155;49.940;8.450;2022-11-20T07:06:05;1.40;6.80
6244;DHT22;3155;49.940;8.450;2022-11-20T07:08:32;1.40;8.20
6244;DHT22;3155;49.940;8.450;2022-11-20T07:11:01;1.40;6.90
6244;DHT22;3155;49.940;8.450;2022-11-20T07:13:28;1.40;12.40
6244;DHT22;3155;49.940;8.450;2022-11-20T07:16:00;1.50;19.70
6244;DHT22;3155;49.940;8.450;2022-11-20T07:18:27;1.50;25.10
6244;DHT22;3155;49.940;8.450;2022-11-20T07:20:54;1.50;28.90
6244;DHT22;3155;49.940;8.450;2022-11-20T07:23:21;1.50;30.80
6244;DHT22;3155;49.940;8.450;2022-11-20T07:25:48;1.50;31.90
6244;DHT22;3155;49.940;8.450;2022-11-20T07:28:14;1.50;28.00
6244;DHT22;3155;49.940;8.450;2022-11-20T07:30:41;1.50;28.80
6244;DHT22;3155;49.940;8.450;2022-11-20T07:33:08;1.60;16.50
6244;DHT22;3155;49.940;8.450;2022-11-20T07:35:35;1.60;11.20
6244;DHT22;3155;49.940;8.450;2022-11-20T07:38:02;1.60;4.20
6244;DHT22;3155;49.940;8.450;2022-11-20T07:40:29;1.60;7.70
6244;DHT22;3155;49.940;8.450;2022-11-20T07:42:55;1.60;11.90
6244;DHT22;3155;49.940;8.450;2022-11-20T07:45:24;1.70;14.80
6244;DHT22;3155;49.940;8.450;2022-11-20T07:47:51;1.70;4.50
6244;DHT22;3155;49.940;8.450;2022-11-20T07:50:19;1.70;6.10
6244;DHT22;3155;49.940;8.450;2022-11-20T07:52:46;1.70;10.50
6244;DHT22;3155;49.940;8.450;2022-11-20T07:55:13;1.70;21.10
6244;DHT22;3155;49.940;8.450;2022-11-20T07:57:40;1.70;37.40
6244;DHT22;3155;49.940;8.450;2022-11-20T08:00:09;1.80;68.40
6244;DHT22;3155;49.940;8.450;2022-11-20T08:02:38;1.90;99.90
6244;DHT22;3155;49.940;8.450;2022-11-20T08:05:06;1.90;99.90
6244;DHT22;3155;49.940;8.450;2022-11-20T08:07:40;2.00;99.90
6244;DHT22;3155;49.940;8.450;2022-11-20T08:10:09;2.00;99.90
6244;DHT22;3155;49.940;8.450;2022-11-20T08:12:36;2.00;99.90
6244;DHT22;3155;49.940;8.450;2022-11-20T08:15:21;2.10;99.90
6244;DHT22;3155;49.940;8.450;2022-11-20T08:17:48;2.10;99.90
6244;DHT22;3155;49.940;8.450;2022-11-20T08:20:35;2.00;99.90
6244;DHT22;3155;49.940;8.450;2022-11-20T08:23:04;1.90;99.90
6244;DHT22;3155;49.940;8.450;2022-11-20T08:25:34;1.90;99.90
6244;DHT22;3155;49.940;8.450;2022-11-20T08:28:03;2.00;99.90
6244;DHT22;3155;49.940;8.450;2022-11-20T08:30:44;2.30;99.90
6244;DHT22;3155;49.940;8.450;2022-11-20T08:33:12;2.50;99.90
6244;DHT22;3155;49.940;8.450;2022-11-20T08:35:39;2.70;99.90
6244;DHT22;3155;49.940;8.450;2022-11-20T08:38:08;2.60;99.90
6244;DHT22;3155;49.940;8.450;2022-11-20T08:40:35;2.60;99.90
6244;DHT22;3155;49.940;8.450;2022-11-20T08:43:02;2.40;99.90
6244;DHT22;3155;49.940;8.450;2022-11-20T08:45:29;2.30;99.90
6244;DHT22;3155;49.940;8.450;2022-11-20T08:48:02;2.20;99.90
6244;DHT22;3155;49.940;8.450;2022-11-20T08:50:30;2.30;99.90
6244;DHT22;3155;49.940;8.450;2022-11-20T08:53:05;2.30;99.90
6244;DHT22;3155;49.940;8.450;2022-11-20T08:55:32;2.50;99.90
6244;DHT22;3155;49.940;8.450;2022-11-20T08:58:06;2.70;99.90
6244;DHT22;3155;49.940;8.450;2022-11-20T09:00:33;2.90;99.90
6244;DHT22;3155;49.940;8.450;2022-11-20T09:03:00;3.10;99.90
6244;DHT22;3155;49.940;8.450;2022-11-20T09:05:28;3.10;99.90
6244;DHT22;3155;49.940;8.450;2022-11-20T09:07:58;3.00;99.90
6244;DHT22;3155;49.940;8.450;2022-11-20T09:10:26;3.00;99.90
6244;DHT22;3155;49.940;8.450;2022-11-20T09:12:54;2.90;99.90
6244;DHT22;3155;49.940;8.450;2022-11-20T09:15:22;2.90;99.90
6244;DHT22;3155;49.940;8.450;2022-11-20T09:18:01;3.00;99.90
6244;DHT22;3155;49.940;8.450;2022-11-20T09:20:30;3.00;99.90
6244;DHT22;3155;49.940;8.450;2022-11-20T09:22:57;3.10;99.90
6244;DHT22;3155;49.940;8.450;2022-11-20T09:25:24;3.20;99.90
6244;DHT22;3155;49.940;8.450;2022-11-20T09:27:58;3.20;99.90
6244;DHT22;3155;49.940;8.450;2022-11-20T09:30:26;3.20;99.90
6244;DHT22;3155;49.940;8.450;2022-11-20T09:32:53;3.30;99.90
6244;DHT22;3155;49.940;8.450;2022-11-20T09:35:20;3.50;1.00
6244;DHT22;3155;49.940;8.450;2022-11-20T09:37:47;3.60;1.00
6244;DHT22;3155;49.940;8.450;2022-11-20T09:40:27;3.70;99.90
6244;DHT22;3155;49.940;8.450;2022-11-20T09:42:59;3.70;99.90
6244;DHT22;3155;49.940;8.450;2022-11-20T09:46:00;3.70;99.90
6244;DHT22;3155;49.940;8.450;2022-11-20T09:48:45;3.70;99.90
6244;DHT22;3155;49.940;8.450;2022-11-20T09:54:19;3.60;99.90
6244;DHT22;3155;49.940;8.450;2022-11-20T09:57:05;3.50;99.90
6244;DHT22;3155;49.940;8.450;2022-11-20T09:59:59;3.50;99.90
6244;DHT22;3155;49.940;8.450;2022-11-20T10:02:30;3.70;99.90
6244;DHT22;3155;49.940;8.450;2022-11-20T10:05:23;3.90;99.90
6244;DHT22;3155;49.940;8.450;2022-11-20T10:11:26;3.90;99.90
6244;DHT22;3155;49.940;8.450;2022-11-20T10:24:02;4.20;99.90
6244;DHT22;3155;49.940;8.450;2022-11-20T10:29:19;3.90;99.90
6244;DHT22;3155;49.940;8.450;2022-11-20T10:31:54;3.90;99.90
6244;DHT22;3155;49.940;8.450;2022-11-20T10:37:27;4.00;99.90
6244;DHT22;3155;49.940;8.450;2022-11-20T10:42:42;4.00;99.90
6244;DHT22;3155;49.940;8.450;2022-11-20T10:50:40;3.70;99.90
6244;DHT22;3155;49.940;8.450;2022-11-20T10:53:17;3.70;99.90
6244;DHT22;3155;49.940;8.450;2022-11-20T10:55:53;3.70;99.90
6244;DHT22;3155;49.940;8.450;2022-11-20T11:01:19;3.60;99.90
6244;DHT22;3155;49.940;8.450;2022-11-20T11:03:50;3.60;99.90
6244;DHT22;3155;49.940;8.450;2022-11-20T11:08:51;3.70;99.90
6244;DHT22;3155;49.940;8.450;2022-11-20T11:11:28;3.70;99.90
6244;DHT22;3155;49.940;8.450;2022-11-20T11:14:12;3.70;99.90
6244;DHT22;3155;49.940;8.450;2022-11-20T11:16:56;3.80;99.90
6244;DHT22;3155;49.940;8.450;2022-11-20T11:19:24;3.90;99.90
6244;DHT22;3155;49.940;8.450;2022-11-20T11:21:55;4.20;99.90
6244;DHT22;3155;49.940;8.450;2022-11-20T11:24:28;4.40;99.90
6244;DHT22;3155;49.940;8.450;2022-11-20T11:27:14;4.50;99.90
6244;DHT22;3155;49.940;8.450;2022-11-20T11:29:45;4.50;99.90
6244;DHT22;3155;49.940;8.450;2022-11-20T11:32:20;4.70;99.90
6244;DHT22;3155;49.940;8.450;2022-11-20T11:35:18;4.80;99.90
6244;DHT22;3155;49.940;8.450;2022-11-20T11:37:46;5.10;99.90
6244;DHT22;3155;49.940;8.450;2022-11-20T11:40:15;5.00;99.90
6244;DHT22;3155;49.940;8.450;2022-11-20T11:42:57;4.90;99.90
6244;DHT22;3155;49.940;8.450;2022-11-20T11:45:24;5.10;99.90
6244;DHT22;3155;49.940;8.450;2022-11-20T11:47:54;5.10;99.90
6244;DHT22;3155;49.940;8.450;2022-11-20T11:50:23;5.00;99.90
6244;DHT22;3155;49.940;8.450;2022-11-20T12:00:39;5.40;99.90
6244;DHT22;3155;49.940;8.450;2022-11-20T12:06:16;5.30;99.90
6244;DHT22;3155;49.940;8.450;2022-11-20T12:08:53;5.40;99.90
6244;DHT22;3155;49.940;8.450;2022-11-20T12:11:39;5.60;99.90
6244;DHT22;3155;49.940;8.450;2022-11-20T12:14:19;5.60;99.90
6244;DHT22;3155;49.940;8.450;2022-11-20T12:16:51;5.70;99.90
6244;DHT22;3155;49.940;8.450;2022-11-20T12:19:20;5.70;99.90
6244;DHT22;3155;49.940;8.450;2022-11-20T12:24:44;5.70;99.90
6244;DHT22;3155;49.940;8.450;2022-11-20T12:30:01;5.90;99.90
6244;DHT22;3155;49.940;8.450;2022-11-20T12:40:50;5.80;99.90
6244;DHT22;3155;49.940;8.450;2022-11-20T12:43:24;5.60;99.90
6244;DHT22;3155;49.940;8.450;2022-11-20T12:51:59;5.10;99.90
6244;DHT22;3155;49.940;8.450;2022-11-20T12:57:15;5.30;99.90
6244;DHT22;3155;49.940;8.450;2022-11-20T13:00:07;5.40;99.90
6244;DHT22;3155;49.940;8.450;2022-11-20T13:08:54;5.30;99.90
6244;DHT22;3155;49.940;8.450;2022-11-20T13:11:27;5.10;99.90
6244;DHT22;3155;49.940;8.450;2022-11-20T13:16:50;4.70;99.90
6244;DHT22;3155;49.940;8.450;2022-11-20T13:19:19;4.60;99.90
6244;DHT22;3155;49.940;8.450;2022-11-20T13:21:48;4.60;99.90
6244;DHT22;3155;49.940;8.450;2022-11-20T13:26:46;4.70;1.00
6244;DHT22;3155;49.940;8.450;2022-11-20T13:29:18;4.70;44.60
6244;DHT22;3155;49.940;8.450;2022-11-20T13:31:47;4.70;99.90
6244;DHT22;3155;49.940;8.450;2022-11-20T13:34:24;4.70;90.20
6244;DHT22;3155;49.940;8.450;2022-11-20T13:36:54;4.70;99.90
6244;DHT22;3155;49.940;8.450;2022-11-20T13:39:35;4.80;99.90
6244;DHT22;3155;49.940;8.450;2022-11-20T13:42:21;5.00;99.90
6244;DHT22;3155;49.940;8.450;2022-11-20T13:44:54;5.40;1.00
6244;DHT22;3155;49.940;8.450;2022-11-20T13:47:26;5.70;99.90
6244;DHT22;3155;49.940;8.450;2022-11-20T13:49:55;5.80;99.90
6244;DHT22;3155;49.940;8.450;2022-11-20T13:52:47;5.80;99.90
6244;DHT22;3155;49.940;8.450;2022-11-20T13:55:43;5.40;99.90
6244;DHT22;3155;49.940;8.450;2022-11-20T13:58:40;5.40;99.90
6244;DHT22;3155;49.940;8.450;2022-11-20T14:01:13;5.40;99.90
6244;DHT22;3155;49.940;8.450;2022-11-20T14:03:41;5.40;99.90
6244;DHT22;3155;49.940;8.450;2022-11-20T14:06:30;5.30;99.90
6244;DHT22;3155;49.940;8.450;2022-11-20T14:08:59;5.30;99.90
6244;DHT22;3155;49.940;8.450;2022-11-20T14:11:30;5.30;99.90
6244;DHT22;3155;49.940;8.450;2022-11-20T14:14:04;5.40;99.90
6244;DHT22;3155;49.940;8.450;2022-11-20T14:16:39;5.50;99.90
6244;DHT22;3155;49.940;8.450;2022-11-20T14:22:09;5.50;99.90
6244;DHT22;3155;49.940;8.450;2022-11-20T14:24:37;5.40;99.90
6244;DHT22;3155;49.940;8.450;2022-11-20T14:27:04;5.30;99.90
6244;DHT22;3155;49.940;8.450;2022-11-20T14:29:35;5.20;99.90
6244;DHT22;3155;49.940;8.450;2022-11-20T14:32:03;5.10;99.90
6244;DHT22;3155;49.940;8.450;2022-11-20T14:34:33;5.00;99.90
6244;DHT22;3155;49.940;8.450;2022-11-20T14:37:06;4.90;99.90
6244;DHT22;3155;49.940;8.450;2022-11-20T14:39:55;4.90;1.00
6244;DHT22;3155;49.940;8.450;2022-11-20T14:42:24;4.80;99.90
6244;DHT22;3155;49.940;8.450;2022-11-20T14:44:54;4.70;1.00
6244;DHT22;3155;49.940;8.450;2022-11-20T14:47:28;4.70;75.80
6244;DHT22;3155;49.940;8.450;2022-11-20T14:49:58;4.60;99.90
6244;DHT22;3155;49.940;8.450;2022-11-20T14:52:27;4.60;1.00
6244;DHT22;3155;49.940;8.450;2022-11-20T14:54:57;4.60;13.60
6244;DHT22;3155;49.940;8.450;2022-11-20T14:57:30;4.60;99.90
6244;DHT22;3155;49.940;8.450;2022-11-20T15:00:18;4.60;99.90
6244;DHT22;3155;49.940;8.450;2022-11-20T15:02:47;4.60;1.00
6244;DHT22;3155;49.940;8.450;2022-11-20T15:05:16;4.60;1.00
6244;DHT22;3155;49.940;8.450;2022-11-20T15:07:46;4.50;1.00
6244;DHT22;3155;49.940;8.450;2022-11-20T15:10:24;4.50;99.90
6244;DHT22;3155;49.940;8.450;2022-11-20T15:12:55;4.50;99.90
6244;DHT22;3155;49.940;8.450;2022-11-20T15:18:32;4.50;99.90
6244;DHT22;3155;49.940;8.450;2022-11-20T15:21:03;4.50;99.90
6244;DHT22;3155;49.940;8.450;2022-11-20T15:23:32;4.40;99.90
6244;DHT22;3155;49.940;8.450;2022-11-20T15:25:59;4.30;1.00
6244;DHT22;3155;49.940;8.450;2022-11-20T15:28:34;4.30;1.00
6244;DHT22;3155;49.940;8.450;2022-11-20T15:31:02;4.30;1.00
6244;DHT22;3155;49.940;8.450;2022-11-20T15:33:30;4.30;1.00
6244;DHT22;3155;49.940;8.450;2022-11-20T15:35:57;4.20;1.00
6244;DHT22;3155;49.940;8.450;2022-11-20T15:38:24;4.20;66.30
6244;DHT22;3155;49.940;8.450;2022-11-20T15:40:51;4.20;99.90
6244;DHT22;3155;49.940;8.450;2022-11-20T15:43:18;4.20;99.90
6244;DHT22;3155;49.940;8.450;2022-11-20T15:45:54;4.30;99.90
6244;DHT22;3155;49.940;8.450;2022-11-20T15:48:41;4.30;99.90
6244;DHT22;3155;49.940;8.450;2022-11-20T15:53:58;4.30;99.90
6244;DHT22;3155;49.940;8.450;2022-11-20T15:56:26;4.30;99.90
6244;DHT22;3155;49.940;8.450;2022-11-20T15:58:52;4.20;99.90
6244;DHT22;3155;49.940;8.450;2022-11-20T16:01:21;4.20;99.90
6244;DHT22;3155;49.940;8.450;2022-11-20T16:03:49;4.10;99.90
6244;DHT22;3155;49.940;8.450;2022-11-20T16:06:15;4.00;99.90
6244;DHT22;3155;49.940;8.450;2022-11-20T16:08:42;4.00;1.00
6244;DHT22;3155;49.940;8.450;2022-11-20T16:11:15;4.20;1.00
6244;DHT22;3155;49.940;8.450;2022-11-20T16:13:42;4.20;1.00
6244;DHT22;3155;49.940;8.450;2022-11-20T16:16:30;4.20;1.00
6244;DHT22;3155;49.940;8.450;2022-11-20T16:18:58;4.10;1.00
6244;DHT22;3155;49.940;8.450;2022-11-20T16:21:24;4.10;1.00
6244;DHT22;3155;49.940;8.450;2022-11-20T16:24:02;4.10;1.00
6244;DHT22;3155;49.940;8.450;2022-11-20T16:26:29;4.10;1.00
6244;DHT22;3155;49.940;8.450;2022-11-20T16:28:58;4.10;1.00
6244;DHT22;3155;49.940;8.450;2022-11-20T16:31:25;4.10;1.00
6244;DHT22;3155;49.940;8.450;2022-11-20T16:33:54;4.10;1.00
6244;DHT22;3155;49.940;8.450;2022-11-20T16:36:22;4.20;1.00
6244;DHT22;3155;49.940;8.450;2022-11-20T16:38:54;4.10;1.00
6244;DHT22;3155;49.940;8.450;2022-11-20T16:41:22;4.10;1.00
6244;DHT22;3155;49.940;8.450;2022-11-20T16:43:57;4.20;1.00
6244;DHT22;3155;49.940;8.450;2022-11-20T16:46:26;4.20;1.00
6244;DHT22;3155;49.940;8.450;2022-11-20T16:49:02;4.20;1.00
6244;DHT22;3155;49.940;8.450;2022-11-20T16:51:31;4.20;1.00
6244;DHT22;3155;49.940;8.450;2022-11-20T16:54:07;4.20;1.00
6244;DHT22;3155;49.940;8.450;2022-11-20T16:56:34;4.20;1.00
6244;DHT22;3155;49.940;8.450;2022-11-20T16:59:01;4.10;1.00
6244;DHT22;3155;49.940;8.450;2022-11-20T17:01:29;4.10;1.00
6244;DHT22;3155;49.940;8.450;2022-11-20T17:04:01;4.10;1.00
6244;DHT22;3155;49.940;8.450;2022-11-20T17:06:32;4.10;1.00
6244;DHT22;3155;49.940;8.450;2022-11-20T17:08:59;4.10;1.00
6244;DHT22;3155;49.940;8.450;2022-11-20T17:11:27;4.10;1.00
6244;DHT22;3155;49.940;8.450;2022-11-20T17:13:55;4.10;1.00
6244;DHT22;3155;49.940;8.450;2022-11-20T17:16:23;4.10;1.00
6244;DHT22;3155;49.940;8.450;2022-11-20T17:18:50;4.10;1.00
6244;DHT22;3155;49.940;8.450;2022-11-20T17:21:26;4.10;5.30
6244;DHT22;3155;49.940;8.450;2022-11-20T17:23:55;4.10;11.30
6244;DHT22;3155;49.940;8.450;2022-11-20T17:26:23;4.10;17.70
6244;DHT22;3155;49.940;8.450;2022-11-20T17:28:56;4.10;23.60
6244;DHT22;3155;49.940;8.450;2022-11-20T17:31:23;4.10;30.70
6244;DHT22;3155;49.940;8.450;2022-11-20T17:33:50;4.10;38.50
6244;DHT22;3155;49.940;8.450;2022-11-20T17:36:18;4.10;49.60
6244;DHT22;3155;49.940;8.450;2022-11-20T17:38:45;4.20;57.70
6244;DHT22;3155;49.940;8.450;2022-11-20T17:41:15;4.20;69.20
6244;DHT22;3155;49.940;8.450;2022-11-20T17:43:42;4.20;79.70
6244;DHT22;3155;49.940;8.450;2022-11-20T17:46:12;4.30;90.60
6244;DHT22;3155;49.940;8.450;2022-11-20T17:48:39;4.30;95.40
6244;DHT22;3155;49.940;8.450;2022-11-20T17:51:18;4.30;98.70
6244;DHT22;3155;49.940;8.450;2022-11-20T17:53:48;4.30;99.90
6244;DHT22;3155;49.940;8.450;2022-11-20T17:56:15;4.40;99.90
6244;DHT22;3155;49.940;8.450;2022-11-20T17:59:09;4.40;99.90
6244;DHT22;3155;49.940;8.450;2022-11-20T18:01:37;4.40;99.90
6244;DHT22;3155;49.940;8.450;2022-11-20T18:04:05;4.40;99.90
6244;DHT22;3155;49.940;8.450;2022-11-20T18:06:32;4.50;99.90
6244;DHT22;3155;49.940;8.450;2022-11-20T18:09:00;4.60;99.90
6244;DHT22;3155;49.940;8.450;2022-11-20T18:11:35;4.70;99.90
6244;DHT22;3155;49.940;8.450;2022-11-20T18:14:05;4.80;99.90
6244;DHT22;3155;49.940;8.450;2022-11-20T18:16:54;4.80;99.90
6244;DHT22;3155;49.940;8.450;2022-11-20T18:19:24;4.90;99.90
6244;DHT22;3155;49.940;8.450;2022-11-20T18:21:57;4.90;99.90
6244;DHT22;3155;49.940;8.450;2022-11-20T18:24:26;5.00;99.90
6244;DHT22;3155;49.940;8.450;2022-11-20T18:26:53;5.10;79.00
6244;DHT22;3155;49.940;8.450;2022-11-20T18:29:20;5.10;34.30
6244;DHT22;3155;49.940;8.450;2022-11-20T18:31:48;5.10;1.00
6244;DHT22;3155;49.940;8.450;2022-11-20T18:34:15;5.10;1.00